createdAt,value
2023-05-06T00:00:39.934Z,98517.20
2023-05-06T00:03:06.583Z,98516.66
2023-05-06T00:05:33.156Z,98514.79
2023-05-06T00:07:59.640Z,98518.41
2023-05-06T00:10:26.205Z,98515.52
2023-05-06T00:12:52.862Z,98511.44
2023-05-06T00:15:19.708Z,98510.09
2023-05-06T00:17:46.293Z,98512.42
2023-05-06T00:20:13.234Z,98508.75
2023-05-06T00:22:39.705Z,98506.69
2023-05-06T00:25:07.131Z,98504.41
2023-05-06T00:27:34.194Z,98503.84
2023-05-06T00:30:00.726Z,98502.48
2023-05-06T00:32:27.232Z,98504.78
2023-05-06T00:34:53.677Z,98504.36
2023-05-06T00:37:20.262Z,98498.96
2023-05-06T00:39:46.913Z,98501.98
2023-05-06T00:42:13.470Z,98499.64
2023-05-06T00:44:40.525Z,98503.73
2023-05-06T00:47:07.747Z,98504.73
2023-05-06T00:49:34.909Z,98509.36
2023-05-06T00:52:01.488Z,98513.16
2023-05-06T00:54:28.243Z,98512.50
2023-05-06T00:56:55.401Z,98509.39
2023-05-06T00:59:23.384Z,98505.89
2023-05-06T01:01:50.122Z,98501.52
2023-05-06T01:04:16.659Z,98504.35
2023-05-06T01:06:58.590Z,98504.05
2023-05-06T01:09:24.951Z,98503.35
2023-05-06T01:12:15.056Z,98502.17
2023-05-06T01:15:04.614Z,98501.20
2023-05-06T01:17:34.289Z,98496.08
2023-05-06T01:20:02.427Z,98494.27
2023-05-06T01:22:30.005Z,98499.85
2023-05-06T01:24:56.624Z,98506.96
2023-05-06T01:27:23.148Z,98500.15
2023-05-06T01:29:49.845Z,98508.23
2023-05-06T01:32:19.191Z,98499.17
2023-05-06T01:35:03.521Z,98497.33
2023-05-06T01:37:38.869Z,98494.79
2023-05-06T01:40:06.264Z,98500.89
2023-05-06T01:42:34.930Z,98494.06
2023-05-06T01:45:05.201Z,98494.48
2023-05-06T01:47:32.766Z,98489.60
2023-05-06T01:49:59.985Z,98481.05
2023-05-06T01:52:26.677Z,98472.45
2023-05-06T01:54:53.145Z,98471.77
2023-05-06T01:57:19.772Z,98471.95
2023-05-06T01:59:46.226Z,98469.39
2023-05-06T02:02:12.892Z,98465.48
2023-05-06T02:04:39.384Z,98471.03
2023-05-06T02:07:05.922Z,98466.17
2023-05-06T02:09:32.415Z,98468.17
2023-05-06T02:11:58.910Z,98470.65
2023-05-06T02:14:25.780Z,98471.76
2023-05-06T02:16:52.651Z,98471.65
2023-05-06T02:19:22.437Z,98470.29
2023-05-06T02:21:49.007Z,98468.71
2023-05-06T02:24:15.453Z,98471.17
2023-05-06T02:26:41.913Z,98473.29
2023-05-06T02:29:08.528Z,98472.15
2023-05-06T02:31:35.322Z,98471.16
2023-05-06T02:34:01.835Z,98467.27
2023-05-06T02:36:28.366Z,98467.48
2023-05-06T02:38:54.765Z,98465.58
2023-05-06T02:41:21.367Z,98463.54
2023-05-06T02:43:47.894Z,98467.20
2023-05-06T02:46:14.586Z,98467.04
2023-05-06T02:48:41.227Z,98471.02
2023-05-06T02:51:07.761Z,98471.75
2023-05-06T02:53:34.278Z,98473.45
2023-05-06T02:56:00.748Z,98474.46
2023-05-06T02:58:27.246Z,98472.06
2023-05-06T03:00:53.968Z,98465.58
2023-05-06T03:03:22.281Z,98465.84
2023-05-06T03:05:48.787Z,98469.23
2023-05-06T03:08:15.276Z,98470.27
2023-05-06T03:10:41.788Z,98475.23
2023-05-06T03:13:08.384Z,98479.52
2023-05-06T03:15:35.435Z,98479.46
2023-05-06T03:18:01.974Z,98477.70
2023-05-06T03:20:28.496Z,98477.46
2023-05-06T03:22:56.225Z,98478.05
2023-05-06T03:25:22.771Z,98472.59
2023-05-06T03:27:49.306Z,98471.05
2023-05-06T03:30:15.948Z,98468.34
2023-05-06T03:32:42.763Z,98462.36
2023-05-06T03:35:10.107Z,98463.45
2023-05-06T03:37:36.751Z,98463.81
2023-05-06T03:40:03.247Z,98460.37
2023-05-06T03:42:30.070Z,98461.73
2023-05-06T03:44:56.748Z,98463.59
2023-05-06T03:47:23.524Z,98468.37
2023-05-06T03:49:50.042Z,98467.67
2023-05-06T03:52:16.629Z,98468.86
2023-05-06T03:54:43.469Z,98474.53
2023-05-06T03:57:09.938Z,98471.91
2023-05-06T03:59:36.426Z,98476.84
2023-05-06T04:02:03.120Z,98470.36
2023-05-06T04:04:29.689Z,98472.33
2023-05-06T04:06:56.427Z,98471.67
2023-05-06T04:09:22.943Z,98470.11
2023-05-06T04:11:49.439Z,98467.98
2023-05-06T04:14:15.872Z,98468.63
2023-05-06T04:16:42.438Z,98473.42
2023-05-06T04:19:09.811Z,98464.98
2023-05-06T04:21:36.266Z,98464.42
2023-05-06T04:24:02.943Z,98461.30
2023-05-06T04:26:29.578Z,98457.54
2023-05-06T04:28:56.034Z,98459.41
2023-05-06T04:31:22.621Z,98455.02
2023-05-06T04:33:49.155Z,98451.55
2023-05-06T04:36:15.803Z,98450.84
2023-05-06T04:38:42.768Z,98450.15
2023-05-06T04:41:09.241Z,98455.68
2023-05-06T04:43:35.713Z,98455.41
2023-05-06T04:46:02.269Z,98455.75
2023-05-06T04:48:29.035Z,98451.86
2023-05-06T04:50:55.573Z,98452.11
2023-05-06T04:53:21.987Z,98448.75
2023-05-06T04:55:48.546Z,98452.77
2023-05-06T04:58:15.106Z,98449.73
2023-05-06T05:00:41.848Z,98450.48
2023-05-06T05:03:08.482Z,98451.46
2023-05-06T05:05:35.030Z,98452.21
2023-05-06T05:08:01.602Z,98452.36
2023-05-06T05:10:28.248Z,98449.40
2023-05-06T05:12:54.746Z,98445.23
2023-05-06T05:15:21.335Z,98443.92
2023-05-06T05:17:49.922Z,98443.58
2023-05-06T05:20:16.953Z,98447.88
2023-05-06T05:22:43.856Z,98452.67
2023-05-06T05:25:10.689Z,98455.67
2023-05-06T05:27:37.385Z,98457.88
2023-05-06T05:30:04.516Z,98452.93
2023-05-06T05:32:30.956Z,98451.58
2023-05-06T05:34:57.482Z,98446.27
2023-05-06T05:37:23.955Z,98443.34
2023-05-06T05:39:50.535Z,98443.01
2023-05-06T05:42:17.159Z,98446.41
2023-05-06T05:44:43.696Z,98446.23
2023-05-06T05:47:10.173Z,98446.20
2023-05-06T05:49:36.852Z,98447.20
2023-05-06T05:52:03.592Z,98447.34
2023-05-06T05:54:30.092Z,98447.11
2023-05-06T05:56:56.772Z,98442.27
2023-05-06T05:59:23.479Z,98437.44
2023-05-06T06:01:49.981Z,98437.14
2023-05-06T06:04:16.529Z,98433.54
2023-05-06T06:06:43.048Z,98433.83
2023-05-06T06:09:09.889Z,98435.30
2023-05-06T06:11:36.344Z,98429.77
2023-05-06T06:14:02.798Z,98428.11
2023-05-06T06:16:29.411Z,98424.46
2023-05-06T06:18:56.232Z,98424.80
2023-05-06T06:21:22.861Z,98422.84
2023-05-06T06:23:49.356Z,98423.27
2023-05-06T06:26:15.893Z,98421.45
2023-05-06T06:28:42.349Z,98415.77
2023-05-06T06:31:08.985Z,98409.23
2023-05-06T06:33:35.402Z,98405.69
2023-05-06T06:36:01.892Z,98404.94
2023-05-06T06:38:28.750Z,98400.14
2023-05-06T06:40:55.373Z,98401.06
2023-05-06T06:43:21.851Z,98402.13
2023-05-06T06:45:48.648Z,98397.80
2023-05-06T06:48:15.980Z,98396.64
2023-05-06T06:50:43.180Z,98393.18
2023-05-06T06:53:10.615Z,98391.71
2023-05-06T06:55:37.058Z,98394.63
2023-05-06T06:58:03.536Z,98393.48
2023-05-06T07:00:30.088Z,98393.20
2023-05-06T07:02:56.687Z,98391.53
2023-05-06T07:05:23.387Z,98390.23
2023-05-06T07:07:49.908Z,98389.73
2023-05-06T07:10:16.417Z,98385.48
2023-05-06T07:12:43.295Z,98389.66
2023-05-06T07:15:10.604Z,98388.05
2023-05-06T07:20:04.725Z,98382.02
2023-05-06T07:22:31.333Z,98378.63
2023-05-06T07:24:57.773Z,98377.01
2023-05-06T07:27:24.227Z,98378.14
2023-05-06T07:29:51.210Z,98374.73
2023-05-06T07:32:17.728Z,98377.93
2023-05-06T07:34:44.163Z,98370.84
2023-05-06T07:37:10.864Z,98367.23
2023-05-06T07:39:37.305Z,98359.54
2023-05-06T07:42:03.816Z,98355.88
2023-05-06T07:44:30.297Z,98357.19
2023-05-06T07:46:56.890Z,98349.48
2023-05-06T07:49:23.546Z,98346.40
2023-05-06T07:51:50.291Z,98342.52
2023-05-06T07:54:16.753Z,98345.93
2023-05-06T07:56:43.163Z,98337.67
2023-05-06T07:59:09.639Z,98337.17
2023-05-06T08:01:36.348Z,98332.13
2023-05-06T08:04:03.027Z,98330.52
2023-05-06T08:06:29.685Z,98324.67
2023-05-06T08:08:56.135Z,98326.59
2023-05-06T08:11:22.545Z,98331.05
2023-05-06T08:13:49.044Z,98328.82
2023-05-06T08:16:15.788Z,98328.04
2023-05-06T08:18:42.258Z,98322.76
2023-05-06T08:21:08.906Z,98324.70
2023-05-06T08:23:35.654Z,98317.67
2023-05-06T08:26:02.113Z,98313.33
2023-05-06T08:28:28.673Z,98309.63
2023-05-06T08:30:55.352Z,98308.31
2023-05-06T08:33:21.899Z,98312.91
2023-05-06T08:35:48.838Z,98314.65
2023-05-06T08:38:15.438Z,98308.54
2023-05-06T08:40:44.018Z,98299.80
2023-05-06T08:43:14.850Z,98297.16
2023-05-06T08:45:42.016Z,98295.98
2023-05-06T08:48:09.365Z,98290.59
2023-05-06T08:50:40.902Z,98291.41
2023-05-06T08:53:08.280Z,98291.21
2023-05-06T08:55:35.951Z,98287.16
2023-05-06T08:58:05.122Z,98286.20
2023-05-06T09:00:32.148Z,98284.55
2023-05-06T09:02:58.682Z,98282.90
2023-05-06T09:05:25.266Z,98273.44
2023-05-06T09:07:51.756Z,98267.38
2023-05-06T09:10:18.211Z,98266.55
2023-05-06T09:12:44.894Z,98263.73
2023-05-06T09:15:12.112Z,98250.53
2023-05-06T09:21:13.460Z,98239.88
2023-05-06T09:23:40.422Z,98234.77
2023-05-06T09:26:07.200Z,98230.17
2023-05-06T09:28:33.741Z,98229.87
2023-05-06T09:31:00.933Z,98225.10
2023-05-06T09:33:27.824Z,98227.09
2023-05-06T09:35:54.311Z,98222.49
2023-05-06T09:38:21.039Z,98217.87
2023-05-06T09:40:47.604Z,98216.49
2023-05-06T09:43:14.909Z,98212.98
2023-05-06T09:45:41.792Z,98207.24
2023-05-06T09:48:08.542Z,98207.44
2023-05-06T09:50:36.590Z,98202.36
2023-05-06T09:53:05.169Z,98201.80
2023-05-06T09:55:33.338Z,98197.67
2023-05-06T09:58:01.507Z,98193.83
2023-05-06T10:00:30.744Z,98191.89
2023-05-06T10:02:59.384Z,98182.89
2023-05-06T10:05:28.615Z,98183.61
2023-05-06T10:07:56.575Z,98177.84
2023-05-06T10:10:25.598Z,98174.65
2023-05-06T10:12:52.880Z,98166.82
2023-05-06T10:15:19.449Z,98163.11
